sensor_id;sensor_type;location;lat;lon;timestamp;P1;durP1;ratioP1;P2;durP2;ratioP2
11537;SDS011;50159;49.426;11.182;2023-03-12T00:00:03;4.50;;;4.20;;
11537;SDS011;50159;49.426;11.182;2023-03-12T00:02:34;4.20;;;3.90;;
11537;SDS011;50159;49.426;11.182;2023-03-12T00:05:01;4.40;;;4.00;;
11537;SDS011;50159;49.426;11.182;2023-03-12T00:07:28;4.23;;;4.03;;
11537;SDS011;50159;49.426;11.182;2023-03-12T00:09:55;3.80;;;3.60;;
11537;SDS011;50159;49.426;11.182;2023-03-12T00:12:22;4.87;;;4.47;;
11537;SDS011;50159;49.426;11.182;2023-03-12T00:14:49;5.10;;;4.00;;
11537;SDS011;50159;49.426;11.182;2023-03-12T00:17:16;4.83;;;4.43;;
11537;SDS011;50159;49.426;11.182;2023-03-12T00:19:43;4.33;;;4.00;;
11537;SDS011;50159;49.426;11.182;2023-03-12T00:22:10;4.87;;;4.37;;
11537;SDS011;50159;49.426;11.182;2023-03-12T00:24:37;4.23;;;4.03;;
11537;SDS011;50159;49.426;11.182;2023-03-12T00:27:05;4.70;;;4.23;;
11537;SDS011;50159;49.426;11.182;2023-03-12T00:29:32;4.73;;;4.27;;
11537;SDS011;50159;49.426;11.182;2023-03-12T00:31:59;5.03;;;4.57;;
11537;SDS011;50159;49.426;11.182;2023-03-12T00:34:25;4.87;;;4.50;;
11537;SDS011;50159;49.426;11.182;2023-03-12T00:36:52;6.07;;;4.80;;
11537;SDS011;50159;49.426;11.182;2023-03-12T00:39:19;4.90;;;4.60;;
11537;SDS011;50159;49.426;11.182;2023-03-12T00:41:46;5.40;;;4.90;;
11537;SDS011;50159;49.426;11.182;2023-03-12T00:44:12;5.00;;;4.60;;
11537;SDS011;50159;49.426;11.182;2023-03-12T00:46:39;4.63;;;4.23;;
11537;SDS011;50159;49.426;11.182;2023-03-12T00:49:06;5.03;;;4.63;;
11537;SDS011;50159;49.426;11.182;2023-03-12T00:51:33;4.80;;;4.40;;
11537;SDS011;50159;49.426;11.182;2023-03-12T00:54:00;4.83;;;4.53;;
11537;SDS011;50159;49.426;11.182;2023-03-12T00:56:27;4.83;;;4.60;;
11537;SDS011;50159;49.426;11.182;2023-03-12T00:58:53;5.40;;;4.90;;
11537;SDS011;50159;49.426;11.182;2023-03-12T01:01:20;5.60;;;5.20;;
11537;SDS011;50159;49.426;11.182;2023-03-12T01:03:48;4.87;;;4.53;;
11537;SDS011;50159;49.426;11.182;2023-03-12T01:06:19;5.80;;;5.30;;
11537;SDS011;50159;49.426;11.182;2023-03-12T01:08:46;5.03;;;4.60;;
11537;SDS011;50159;49.426;11.182;2023-03-12T01:11:13;7.10;;;5.50;;
11537;SDS011;50159;49.426;11.182;2023-03-12T01:13:43;9.07;;;6.80;;
11537;SDS011;50159;49.426;11.182;2023-03-12T01:16:10;14.97;;;8.97;;
11537;SDS011;50159;49.426;11.182;2023-03-12T01:18:37;14.57;;;8.80;;
11537;SDS011;50159;49.426;11.182;2023-03-12T01:21:04;15.67;;;10.13;;
11537;SDS011;50159;49.426;11.182;2023-03-12T01:23:31;13.87;;;8.33;;
11537;SDS011;50159;49.426;11.182;2023-03-12T01:25:58;11.47;;;8.30;;
11537;SDS011;50159;49.426;11.182;2023-03-12T01:28:25;11.57;;;7.10;;
11537;SDS011;50159;49.426;11.182;2023-03-12T01:30:52;7.73;;;6.00;;
11537;SDS011;50159;49.426;11.182;2023-03-12T01:33:19;6.87;;;6.00;;
11537;SDS011;50159;49.426;11.182;2023-03-12T01:35:47;7.97;;;5.77;;
11537;SDS011;50159;49.426;11.182;2023-03-12T01:38:15;7.13;;;6.17;;
11537;SDS011;50159;49.426;11.182;2023-03-12T01:40:44;8.30;;;5.73;;
11537;SDS011;50159;49.426;11.182;2023-03-12T01:43:28;5.63;;;5.13;;
11537;SDS011;50159;49.426;11.182;2023-03-12T01:46:05;5.77;;;5.27;;
11537;SDS011;50159;49.426;11.182;2023-03-12T01:51:38;6.10;;;5.33;;
11537;SDS011;50159;49.426;11.182;2023-03-12T01:54:15;5.20;;;4.90;;
11537;SDS011;50159;49.426;11.182;2023-03-12T01:56:50;7.63;;;5.80;;
11537;SDS011;50159;49.426;11.182;2023-03-12T01:59:28;6.43;;;5.80;;
11537;SDS011;50159;49.426;11.182;2023-03-12T02:02:00;5.73;;;5.30;;
11537;SDS011;50159;49.426;11.182;2023-03-12T02:04:29;7.00;;;5.57;;
11537;SDS011;50159;49.426;11.182;2023-03-12T02:07:03;5.33;;;4.90;;
11537;SDS011;50159;49.426;11.182;2023-03-12T02:09:35;5.70;;;5.10;;
11537;SDS011;50159;49.426;11.182;2023-03-12T02:12:07;5.40;;;4.90;;
11537;SDS011;50159;49.426;11.182;2023-03-12T02:14:35;5.37;;;5.03;;
11537;SDS011;50159;49.426;11.182;2023-03-12T02:17:03;6.07;;;5.43;;
11537;SDS011;50159;49.426;11.182;2023-03-12T02:22:20;4.90;;;4.57;;
11537;SDS011;50159;49.426;11.182;2023-03-12T02:25:11;6.07;;;5.47;;
11537;SDS011;50159;49.426;11.182;2023-03-12T02:27:57;5.07;;;4.77;;
11537;SDS011;50159;49.426;11.182;2023-03-12T02:30:26;5.90;;;5.40;;
11537;SDS011;50159;49.426;11.182;2023-03-12T02:32:57;7.23;;;5.43;;
11537;SDS011;50159;49.426;11.182;2023-03-12T02:35:30;5.50;;;4.97;;
11537;SDS011;50159;49.426;11.182;2023-03-12T02:37:56;6.30;;;5.70;;
11537;SDS011;50159;49.426;11.182;2023-03-12T02:40:25;5.90;;;5.30;;
11537;SDS011;50159;49.426;11.182;2023-03-12T02:42:53;5.37;;;4.87;;
11537;SDS011;50159;49.426;11.182;2023-03-12T02:45:21;5.07;;;4.67;;
11537;SDS011;50159;49.426;11.182;2023-03-12T02:47:51;6.97;;;5.40;;
11537;SDS011;50159;49.426;11.182;2023-03-12T02:50:18;5.60;;;5.20;;
11537;SDS011;50159;49.426;11.182;2023-03-12T02:52:45;5.27;;;4.87;;
11537;SDS011;50159;49.426;11.182;2023-03-12T02:55:12;6.20;;;5.70;;
11537;SDS011;50159;49.426;11.182;2023-03-12T02:57:38;5.93;;;5.37;;
11537;SDS011;50159;49.426;11.182;2023-03-12T03:00:06;5.53;;;5.07;;
11537;SDS011;50159;49.426;11.182;2023-03-12T03:02:40;5.50;;;5.03;;
11537;SDS011;50159;49.426;11.182;2023-03-12T03:05:08;7.43;;;5.33;;
11537;SDS011;50159;49.426;11.182;2023-03-12T03:07:37;5.30;;;4.90;;
11537;SDS011;50159;49.426;11.182;2023-03-12T03:10:04;6.27;;;5.37;;
11537;SDS011;50159;49.426;11.182;2023-03-12T03:12:32;5.23;;;4.70;;
11537;SDS011;50159;49.426;11.182;2023-03-12T03:15:01;5.97;;;5.37;;
11537;SDS011;50159;49.426;11.182;2023-03-12T03:17:29;6.10;;;4.83;;
11537;SDS011;50159;49.426;11.182;2023-03-12T03:19:56;5.23;;;4.83;;
11537;SDS011;50159;49.426;11.182;2023-03-12T03:22:22;9.20;;;5.57;;
11537;SDS011;50159;49.426;11.182;2023-03-12T03:24:49;5.20;;;4.80;;
11537;SDS011;50159;49.426;11.182;2023-03-12T03:27:18;5.37;;;4.87;;
11537;SDS011;50159;49.426;11.182;2023-03-12T03:29:45;6.00;;;5.50;;
11537;SDS011;50159;49.426;11.182;2023-03-12T03:32:13;6.60;;;6.00;;
11537;SDS011;50159;49.426;11.182;2023-03-12T03:34:39;5.93;;;5.43;;
11537;SDS011;50159;49.426;11.182;2023-03-12T03:37:06;6.20;;;5.67;;
11537;SDS011;50159;49.426;11.182;2023-03-12T03:39:33;6.80;;;6.20;;
11537;SDS011;50159;49.426;11.182;2023-03-12T03:42:02;6.77;;;6.07;;
11537;SDS011;50159;49.426;11.182;2023-03-12T03:44:29;6.17;;;5.63;;
11537;SDS011;50159;49.426;11.182;2023-03-12T03:46:56;6.73;;;5.73;;
11537;SDS011;50159;49.426;11.182;2023-03-12T03:49:23;7.00;;;6.30;;
11537;SDS011;50159;49.426;11.182;2023-03-12T03:51:50;7.53;;;6.33;;
11537;SDS011;50159;49.426;11.182;2023-03-12T03:54:17;9.10;;;6.43;;
11537;SDS011;50159;49.426;11.182;2023-03-12T03:56:44;6.53;;;5.93;;
11537;SDS011;50159;49.426;11.182;2023-03-12T03:59:12;6.70;;;6.10;;
11537;SDS011;50159;49.426;11.182;2023-03-12T04:01:39;5.80;;;5.40;;
11537;SDS011;50159;49.426;11.182;2023-03-12T04:04:06;6.47;;;5.93;;
11537;SDS011;50159;49.426;11.182;2023-03-12T04:06:33;5.87;;;5.27;;
11537;SDS011;50159;49.426;11.182;2023-03-12T04:09:01;5.73;;;5.23;;
11537;SDS011;50159;49.426;11.182;2023-03-12T04:11:28;6.93;;;6.10;;
11537;SDS011;50159;49.426;11.182;2023-03-12T04:13:55;6.07;;;5.57;;
11537;SDS011;50159;49.426;11.182;2023-03-12T04:16:23;6.43;;;5.83;;
11537;SDS011;50159;49.426;11.182;2023-03-12T04:18:50;6.07;;;5.57;;
11537;SDS011;50159;49.426;11.182;2023-03-12T04:21:16;6.27;;;5.67;;
11537;SDS011;50159;49.426;11.182;2023-03-12T04:23:43;5.80;;;5.30;;
11537;SDS011;50159;49.426;11.182;2023-03-12T04:26:10;5.53;;;5.13;;
11537;SDS011;50159;49.426;11.182;2023-03-12T04:28:37;6.90;;;5.93;;
11537;SDS011;50159;49.426;11.182;2023-03-12T04:31:05;6.33;;;5.63;;
11537;SDS011;50159;49.426;11.182;2023-03-12T04:33:34;6.17;;;5.57;;
11537;SDS011;50159;49.426;11.182;2023-03-12T04:36:04;8.40;;;5.70;;
11537;SDS011;50159;49.426;11.182;2023-03-12T04:38:31;5.80;;;5.40;;
11537;SDS011;50159;49.426;11.182;2023-03-12T04:41:03;5.50;;;5.17;;
11537;SDS011;50159;49.426;11.182;2023-03-12T04:43:36;5.97;;;5.47;;
11537;SDS011;50159;49.426;11.182;2023-03-12T04:46:04;6.93;;;6.23;;
11537;SDS011;50159;49.426;11.182;2023-03-12T04:48:32;7.27;;;6.13;;
11537;SDS011;50159;49.426;11.182;2023-03-12T04:50:59;6.33;;;5.73;;
11537;SDS011;50159;49.426;11.182;2023-03-12T04:53:26;6.23;;;5.73;;
11537;SDS011;50159;49.426;11.182;2023-03-12T04:55:53;6.60;;;6.00;;
11537;SDS011;50159;49.426;11.182;2023-03-12T04:58:20;5.27;;;4.97;;
11537;SDS011;50159;49.426;11.182;2023-03-12T05:00:48;8.33;;;5.93;;
11537;SDS011;50159;49.426;11.182;2023-03-12T05:03:15;5.50;;;5.07;;
11537;SDS011;50159;49.426;11.182;2023-03-12T05:05:43;6.17;;;5.63;;
11537;SDS011;50159;49.426;11.182;2023-03-12T05:08:10;5.80;;;5.30;;
11537;SDS011;50159;49.426;11.182;2023-03-12T05:10:36;6.37;;;5.73;;
11537;SDS011;50159;49.426;11.182;2023-03-12T05:13:03;7.50;;;5.40;;
11537;SDS011;50159;49.426;11.182;2023-03-12T05:15:37;5.57;;;5.17;;
11537;SDS011;50159;49.426;11.182;2023-03-12T05:18:04;6.03;;;4.93;;
11537;SDS011;50159;49.426;11.182;2023-03-12T05:20:30;5.40;;;5.00;;
11537;SDS011;50159;49.426;11.182;2023-03-12T05:22:57;5.63;;;5.20;;
11537;SDS011;50159;49.426;11.182;2023-03-12T05:25:24;6.20;;;5.60;;
11537;SDS011;50159;49.426;11.182;2023-03-12T05:27:51;5.70;;;5.20;;
11537;SDS011;50159;49.426;11.182;2023-03-12T05:30:17;6.07;;;5.57;;
11537;SDS011;50159;49.426;11.182;2023-03-12T05:32:44;6.37;;;5.70;;
11537;SDS011;50159;49.426;11.182;2023-03-12T05:35:11;6.00;;;5.40;;
11537;SDS011;50159;49.426;11.182;2023-03-12T05:37:38;5.20;;;4.77;;
11537;SDS011;50159;49.426;11.182;2023-03-12T05:40:11;5.77;;;5.27;;
11537;SDS011;50159;49.426;11.182;2023-03-12T05:42:38;5.67;;;5.17;;
11537;SDS011;50159;49.426;11.182;2023-03-12T05:45:05;5.93;;;5.33;;
11537;SDS011;50159;49.426;11.182;2023-03-12T05:47:33;5.20;;;4.83;;
11537;SDS011;50159;49.426;11.182;2023-03-12T05:50:00;6.00;;;5.50;;
11537;SDS011;50159;49.426;11.182;2023-03-12T05:52:26;6.07;;;5.57;;
11537;SDS011;50159;49.426;11.182;2023-03-12T05:54:53;5.77;;;5.27;;
11537;SDS011;50159;49.426;11.182;2023-03-12T05:57:20;5.57;;;5.10;;
11537;SDS011;50159;49.426;11.182;2023-03-12T05:59:47;4.90;;;4.50;;
11537;SDS011;50159;49.426;11.182;2023-03-12T06:02:13;5.77;;;5.20;;
11537;SDS011;50159;49.426;11.182;2023-03-12T06:04:40;4.40;;;4.20;;
11537;SDS011;50159;49.426;11.182;2023-03-12T06:07:07;5.30;;;4.87;;
11537;SDS011;50159;49.426;11.182;2023-03-12T06:09:34;5.73;;;5.23;;
11537;SDS011;50159;49.426;11.182;2023-03-12T06:12:01;5.90;;;5.40;;
11537;SDS011;50159;49.426;11.182;2023-03-12T06:14:28;5.87;;;5.20;;
11537;SDS011;50159;49.426;11.182;2023-03-12T06:16:55;6.43;;;5.93;;
11537;SDS011;50159;49.426;11.182;2023-03-12T06:19:22;5.30;;;4.93;;
11537;SDS011;50159;49.426;11.182;2023-03-12T06:21:48;4.87;;;4.47;;
11537;SDS011;50159;49.426;11.182;2023-03-12T06:24:15;5.13;;;4.83;;
11537;SDS011;50159;49.426;11.182;2023-03-12T06:26:42;5.63;;;5.20;;
11537;SDS011;50159;49.426;11.182;2023-03-12T06:29:09;5.37;;;4.97;;
11537;SDS011;50159;49.426;11.182;2023-03-12T06:31:36;5.70;;;5.13;;
11537;SDS011;50159;49.426;11.182;2023-03-12T06:34:04;5.50;;;4.43;;
11537;SDS011;50159;49.426;11.182;2023-03-12T06:36:31;6.67;;;4.67;;
11537;SDS011;50159;49.426;11.182;2023-03-12T06:38:58;5.27;;;4.77;;
11537;SDS011;50159;49.426;11.182;2023-03-12T06:41:25;5.30;;;4.80;;
11537;SDS011;50159;49.426;11.182;2023-03-12T06:43:52;5.83;;;5.33;;
11537;SDS011;50159;49.426;11.182;2023-03-12T06:46:19;5.87;;;5.30;;
11537;SDS011;50159;49.426;11.182;2023-03-12T06:48:47;6.97;;;5.70;;
11537;SDS011;50159;49.426;11.182;2023-03-12T06:51:14;7.07;;;6.20;;
11537;SDS011;50159;49.426;11.182;2023-03-12T06:53:43;5.73;;;5.27;;
11537;SDS011;50159;49.426;11.182;2023-03-12T06:56:11;5.60;;;5.10;;
11537;SDS011;50159;49.426;11.182;2023-03-12T06:58:39;5.37;;;4.87;;
11537;SDS011;50159;49.426;11.182;2023-03-12T07:01:07;5.00;;;4.70;;
11537;SDS011;50159;49.426;11.182;2023-03-12T07:03:34;5.27;;;4.87;;
11537;SDS011;50159;49.426;11.182;2023-03-12T07:06:01;5.23;;;4.77;;
11537;SDS011;50159;49.426;11.182;2023-03-12T07:08:28;5.40;;;4.47;;
11537;SDS011;50159;49.426;11.182;2023-03-12T07:10:56;4.40;;;4.00;;
11537;SDS011;50159;49.426;11.182;2023-03-12T07:13:27;7.07;;;4.40;;
11537;SDS011;50159;49.426;11.182;2023-03-12T07:15:55;4.00;;;3.80;;
11537;SDS011;50159;49.426;11.182;2023-03-12T07:18:22;4.40;;;4.10;;
11537;SDS011;50159;49.426;11.182;2023-03-12T07:20:48;4.33;;;3.90;;
11537;SDS011;50159;49.426;11.182;2023-03-12T07:23:15;3.60;;;3.40;;
11537;SDS011;50159;49.426;11.182;2023-03-12T07:25:43;4.47;;;4.07;;
11537;SDS011;50159;49.426;11.182;2023-03-12T07:28:10;6.37;;;4.10;;
11537;SDS011;50159;49.426;11.182;2023-03-12T07:30:38;4.20;;;3.80;;
11537;SDS011;50159;49.426;11.182;2023-03-12T07:33:09;5.17;;;3.70;;
11537;SDS011;50159;49.426;11.182;2023-03-12T07:35:38;3.97;;;3.60;;
11537;SDS011;50159;49.426;11.182;2023-03-12T07:38:05;3.67;;;3.47;;
11537;SDS011;50159;49.426;11.182;2023-03-12T07:40:33;4.37;;;4.07;;
11537;SDS011;50159;49.426;11.182;2023-03-12T07:43:02;3.97;;;3.77;;
11537;SDS011;50159;49.426;11.182;2023-03-12T07:45:32;5.80;;;3.97;;
11537;SDS011;50159;49.426;11.182;2023-03-12T07:47:58;5.67;;;3.70;;
11537;SDS011;50159;49.426;11.182;2023-03-12T07:50:25;4.20;;;3.83;;
11537;SDS011;50159;49.426;11.182;2023-03-12T07:52:52;4.50;;;4.10;;
11537;SDS011;50159;49.426;11.182;2023-03-12T07:55:19;4.60;;;4.17;;
11537;SDS011;50159;49.426;11.182;2023-03-12T07:57:46;5.50;;;4.23;;
11537;SDS011;50159;49.426;11.182;2023-03-12T08:00:13;3.80;;;3.60;;
11537;SDS011;50159;49.426;11.182;2023-03-12T08:02:40;4.10;;;3.90;;
11537;SDS011;50159;49.426;11.182;2023-03-12T08:05:08;3.73;;;3.43;;
11537;SDS011;50159;49.426;11.182;2023-03-12T08:07:35;11.50;;;4.03;;
11537;SDS011;50159;49.426;11.182;2023-03-12T08:10:03;4.63;;;4.13;;
11537;SDS011;50159;49.426;11.182;2023-03-12T08:12:32;4.50;;;3.67;;
11537;SDS011;50159;49.426;11.182;2023-03-12T08:14:59;5.20;;;3.57;;
11537;SDS011;50159;49.426;11.182;2023-03-12T08:17:26;5.20;;;4.20;;
11537;SDS011;50159;49.426;11.182;2023-03-12T08:19:53;4.23;;;3.93;;
11537;SDS011;50159;49.426;11.182;2023-03-12T08:22:20;4.23;;;3.90;;
11537;SDS011;50159;49.426;11.182;2023-03-12T08:24:46;3.80;;;3.57;;
11537;SDS011;50159;49.426;11.182;2023-03-12T08:27:14;6.07;;;4.00;;
11537;SDS011;50159;49.426;11.182;2023-03-12T08:29:40;4.37;;;4.00;;
11537;SDS011;50159;49.426;11.182;2023-03-12T08:32:08;4.33;;;3.97;;
11537;SDS011;50159;49.426;11.182;2023-03-12T08:34:36;3.63;;;3.37;;
11537;SDS011;50159;49.426;11.182;2023-03-12T08:37:03;4.00;;;3.77;;
11537;SDS011;50159;49.426;11.182;2023-03-12T08:39:30;3.97;;;3.60;;
11537;SDS011;50159;49.426;11.182;2023-03-12T08:41:58;3.63;;;3.33;;
11537;SDS011;50159;49.426;11.182;2023-03-12T08:44:25;4.10;;;3.73;;
11537;SDS011;50159;49.426;11.182;2023-03-12T08:46:52;3.23;;;3.03;;
11537;SDS011;50159;49.426;11.182;2023-03-12T08:49:20;4.70;;;3.53;;
11537;SDS011;50159;49.426;11.182;2023-03-12T08:51:47;5.07;;;2.97;;
11537;SDS011;50159;49.426;11.182;2023-03-12T08:54:17;3.90;;;3.60;;
11537;SDS011;50159;49.426;11.182;2023-03-12T08:56:48;4.37;;;3.43;;
11537;SDS011;50159;49.426;11.182;2023-03-12T08:59:17;3.63;;;3.33;;
11537;SDS011;50159;49.426;11.182;2023-03-12T09:01:51;4.13;;;3.57;;
11537;SDS011;50159;49.426;11.182;2023-03-12T09:04:17;3.43;;;3.23;;
11537;SDS011;50159;49.426;11.182;2023-03-12T09:06:45;5.17;;;3.83;;
11537;SDS011;50159;49.426;11.182;2023-03-12T09:09:12;3.43;;;2.80;;
11537;SDS011;50159;49.426;11.182;2023-03-12T09:11:41;3.73;;;3.00;;
11537;SDS011;50159;49.426;11.182;2023-03-12T09:14:08;3.23;;;3.00;;
11537;SDS011;50159;49.426;11.182;2023-03-12T09:16:55;3.60;;;3.30;;
11537;SDS011;50159;49.426;11.182;2023-03-12T09:19:23;4.30;;;3.80;;
11537;SDS011;50159;49.426;11.182;2023-03-12T09:21:50;4.43;;;2.90;;
11537;SDS011;50159;49.426;11.182;2023-03-12T09:24:16;3.63;;;3.33;;
11537;SDS011;50159;49.426;11.182;2023-03-12T09:26:43;4.63;;;3.40;;
11537;SDS011;50159;49.426;11.182;2023-03-12T09:29:11;5.77;;;3.10;;
11537;SDS011;50159;49.426;11.182;2023-03-12T09:31:37;6.80;;;3.20;;
11537;SDS011;50159;49.426;11.182;2023-03-12T09:34:04;3.80;;;3.27;;
11537;SDS011;50159;49.426;11.182;2023-03-12T09:36:31;4.43;;;3.10;;
11537;SDS011;50159;49.426;11.182;2023-03-12T09:38:59;2.93;;;2.73;;
11537;SDS011;50159;49.426;11.182;2023-03-12T09:41:29;2.70;;;2.60;;
11537;SDS011;50159;49.426;11.182;2023-03-12T09:44:08;3.27;;;2.87;;
11537;SDS011;50159;49.426;11.182;2023-03-12T09:46:49;3.43;;;2.77;;
11537;SDS011;50159;49.426;11.182;2023-03-12T09:52:12;3.10;;;2.90;;
11537;SDS011;50159;49.426;11.182;2023-03-12T09:57:34;5.50;;;2.70;;
11537;SDS011;50159;49.426;11.182;2023-03-12T10:00:01;2.97;;;2.87;;
11537;SDS011;50159;49.426;11.182;2023-03-12T10:02:40;3.53;;;2.70;;
11537;SDS011;50159;49.426;11.182;2023-03-12T10:08:40;5.23;;;4.83;;
11537;SDS011;50159;49.426;11.182;2023-03-12T10:11:15;3.27;;;3.07;;
11537;SDS011;50159;49.426;11.182;2023-03-12T10:20:25;5.60;;;5.10;;
11537;SDS011;50159;49.426;11.182;2023-03-12T10:26:04;5.67;;;2.90;;
11537;SDS011;50159;49.426;11.182;2023-03-12T10:29:15;3.60;;;3.30;;
11537;SDS011;50159;49.426;11.182;2023-03-12T10:34:42;3.97;;;3.63;;
11537;SDS011;50159;49.426;11.182;2023-03-12T10:37:45;4.80;;;3.90;;
11537;SDS011;50159;49.426;11.182;2023-03-12T10:40:12;3.90;;;3.60;;
11537;SDS011;50159;49.426;11.182;2023-03-12T10:42:49;2.50;;;2.37;;
11537;SDS011;50159;49.426;11.182;2023-03-12T10:45:19;3.40;;;3.10;;
11537;SDS011;50159;49.426;11.182;2023-03-12T10:47:58;5.43;;;3.27;;
11537;SDS011;50159;49.426;11.182;2023-03-12T10:50:30;4.50;;;3.23;;
11537;SDS011;50159;49.426;11.182;2023-03-12T10:56:11;6.90;;;6.10;;
11537;SDS011;50159;49.426;11.182;2023-03-12T10:58:45;4.53;;;3.73;;
11537;SDS011;50159;49.426;11.182;2023-03-12T11:04:29;5.53;;;3.47;;
11537;SDS011;50159;49.426;11.182;2023-03-12T11:09:37;5.00;;;3.20;;
11537;SDS011;50159;49.426;11.182;2023-03-12T11:14:52;4.10;;;3.70;;
11537;SDS011;50159;49.426;11.182;2023-03-12T11:17:23;4.97;;;4.50;;
11537;SDS011;50159;49.426;11.182;2023-03-12T11:19:54;7.60;;;5.77;;
11537;SDS011;50159;49.426;11.182;2023-03-12T11:22:31;6.03;;;5.50;;
11537;SDS011;50159;49.426;11.182;2023-03-12T11:25:04;7.77;;;4.73;;
11537;SDS011;50159;49.426;11.182;2023-03-12T11:27:37;3.97;;;3.67;;
11537;SDS011;50159;49.426;11.182;2023-03-12T11:30:14;5.83;;;3.60;;
11537;SDS011;50159;49.426;11.182;2023-03-12T11:32:46;5.03;;;3.93;;
11537;SDS011;50159;49.426;11.182;2023-03-12T11:35:15;6.80;;;4.83;;
11537;SDS011;50159;49.426;11.182;2023-03-12T11:38:00;4.87;;;3.97;;
11537;SDS011;50159;49.426;11.182;2023-03-12T11:40:57;4.40;;;4.03;;
11537;SDS011;50159;49.426;11.182;2023-03-12T11:44:06;3.67;;;3.27;;
11537;SDS011;50159;49.426;11.182;2023-03-12T11:50:06;3.30;;;3.07;;
11537;SDS011;50159;49.426;11.182;2023-03-12T11:55:55;4.23;;;3.33;;
11537;SDS011;50159;49.426;11.182;2023-03-12T12:07:43;4.50;;;4.10;;
11537;SDS011;50159;49.426;11.182;2023-03-12T12:17:09;5.30;;;4.90;;
11537;SDS011;50159;49.426;11.182;2023-03-12T12:42:47;9.53;;;7.00;;
11537;SDS011;50159;49.426;11.182;2023-03-12T12:45:26;6.33;;;5.67;;
11537;SDS011;50159;49.426;11.182;2023-03-12T12:50:34;7.37;;;6.00;;
11537;SDS011;50159;49.426;11.182;2023-03-12T13:01:44;13.47;;;8.93;;
11537;SDS011;50159;49.426;11.182;2023-03-12T13:04:12;7.03;;;6.33;;
11537;SDS011;50159;49.426;11.182;2023-03-12T13:09:39;8.90;;;8.00;;
11537;SDS011;50159;49.426;11.182;2023-03-12T13:14:43;10.83;;;8.60;;
11537;SDS011;50159;49.426;11.182;2023-03-12T13:20:17;8.90;;;7.83;;
11537;SDS011;50159;49.426;11.182;2023-03-12T13:22:50;9.10;;;8.20;;
11537;SDS011;50159;49.426;11.182;2023-03-12T13:25:49;14.03;;;8.40;;
11537;SDS011;50159;49.426;11.182;2023-03-12T13:31:36;9.83;;;7.90;;
11537;SDS011;50159;49.426;11.182;2023-03-12T13:34:25;9.60;;;8.60;;
11537;SDS011;50159;49.426;11.182;2023-03-12T13:36:57;10.40;;;9.30;;
11537;SDS011;50159;49.426;11.182;2023-03-12T13:39:31;11.53;;;8.17;;
11537;SDS011;50159;49.426;11.182;2023-03-12T13:42:01;12.77;;;9.17;;
11537;SDS011;50159;49.426;11.182;2023-03-12T13:44:50;9.67;;;8.27;;
11537;SDS011;50159;49.426;11.182;2023-03-12T13:47:22;9.60;;;8.50;;
11537;SDS011;50159;49.426;11.182;2023-03-12T13:49:56;12.37;;;8.77;;
11537;SDS011;50159;49.426;11.182;2023-03-12T13:55:06;9.20;;;8.30;;
11537;SDS011;50159;49.426;11.182;2023-03-12T13:58:00;9.73;;;8.73;;
11537;SDS011;50159;49.426;11.182;2023-03-12T14:00:39;9.10;;;7.47;;
11537;SDS011;50159;49.426;11.182;2023-03-12T14:03:20;10.17;;;8.13;;
11537;SDS011;50159;49.426;11.182;2023-03-12T14:05:57;9.67;;;8.57;;
11537;SDS011;50159;49.426;11.182;2023-03-12T14:14:40;8.63;;;7.73;;
11537;SDS011;50159;49.426;11.182;2023-03-12T14:17:36;8.57;;;7.77;;
11537;SDS011;50159;49.426;11.182;2023-03-12T14:20:16;10.10;;;8.53;;
11537;SDS011;50159;49.426;11.182;2023-03-12T14:22:58;11.67;;;9.03;;
11537;SDS011;50159;49.426;11.182;2023-03-12T14:25:35;11.20;;;8.03;;
11537;SDS011;50159;49.426;11.182;2023-03-12T14:28:18;12.50;;;10.20;;
11537;SDS011;50159;49.426;11.182;2023-03-12T14:31:01;10.17;;;9.00;;
11537;SDS011;50159;49.426;11.182;2023-03-12T14:36:38;8.20;;;7.40;;
11537;SDS011;50159;49.426;11.182;2023-03-12T14:39:29;9.07;;;7.57;;
11537;SDS011;50159;49.426;11.182;2023-03-12T14:42:20;12.87;;;10.23;;
11537;SDS011;50159;49.426;11.182;2023-03-12T14:47:43;9.90;;;7.13;;
11537;SDS011;50159;49.426;11.182;2023-03-12T14:50:23;8.30;;;7.50;;
11537;SDS011;50159;49.426;11.182;2023-03-12T14:53:13;8.77;;;6.67;;
11537;SDS011;50159;49.426;11.182;2023-03-12T14:56:06;11.07;;;8.53;;
11537;SDS011;50159;49.426;11.182;2023-03-12T14:58:56;11.10;;;7.77;;
11537;SDS011;50159;49.426;11.182;2023-03-12T15:01:28;10.33;;;7.70;;
11537;SDS011;50159;49.426;11.182;2023-03-12T15:03:59;8.80;;;8.00;;
11537;SDS011;50159;49.426;11.182;2023-03-12T15:06:38;10.90;;;7.00;;
11537;SDS011;50159;49.426;11.182;2023-03-12T15:09:13;8.03;;;7.27;;
11537;SDS011;50159;49.426;11.182;2023-03-12T15:11:54;8.27;;;7.47;;
11537;SDS011;50159;49.426;11.182;2023-03-12T15:14:25;9.80;;;6.93;;
11537;SDS011;50159;49.426;11.182;2023-03-12T15:16:57;7.90;;;7.10;;
11537;SDS011;50159;49.426;11.182;2023-03-12T15:19:26;8.30;;;7.47;;
11537;SDS011;50159;49.426;11.182;2023-03-12T15:22:00;6.97;;;6.37;;
11537;SDS011;50159;49.426;11.182;2023-03-12T15:24:29;10.60;;;8.30;;
11537;SDS011;50159;49.426;11.182;2023-03-12T15:29:59;6.90;;;6.27;;
11537;SDS011;50159;49.426;11.182;2023-03-12T15:32:27;8.33;;;6.93;;
11537;SDS011;50159;49.426;11.182;2023-03-12T15:34:57;6.70;;;6.20;;
11537;SDS011;50159;49.426;11.182;2023-03-12T15:37:26;8.07;;;6.50;;
11537;SDS011;50159;49.426;11.182;2023-03-12T15:40:04;7.33;;;6.63;;
11537;SDS011;50159;49.426;11.182;2023-03-12T15:42:46;7.50;;;6.83;;
11537;SDS011;50159;49.426;11.182;2023-03-12T15:45:21;9.63;;;6.63;;
11537;SDS011;50159;49.426;11.182;2023-03-12T15:47:53;7.60;;;6.77;;
11537;SDS011;50159;49.426;11.182;2023-03-12T15:50:21;8.67;;;7.57;;
11537;SDS011;50159;49.426;11.182;2023-03-12T15:55:29;9.83;;;7.87;;
11537;SDS011;50159;49.426;11.182;2023-03-12T15:57:59;12.33;;;8.17;;
11537;SDS011;50159;49.426;11.182;2023-03-12T16:00:30;7.93;;;7.13;;
11537;SDS011;50159;49.426;11.182;2023-03-12T16:03:17;7.73;;;7.03;;
11537;SDS011;50159;49.426;11.182;2023-03-12T16:05:47;7.93;;;7.20;;
11537;SDS011;50159;49.426;11.182;2023-03-12T16:10:54;9.00;;;7.13;;
11537;SDS011;50159;49.426;11.182;2023-03-12T16:13:22;12.30;;;9.17;;
11537;SDS011;50159;49.426;11.182;2023-03-12T16:15:56;8.37;;;7.57;;
11537;SDS011;50159;49.426;11.182;2023-03-12T16:18:23;7.93;;;7.13;;
11537;SDS011;50159;49.426;11.182;2023-03-12T16:20:51;7.73;;;6.80;;
11537;SDS011;50159;49.426;11.182;2023-03-12T16:23:18;8.10;;;7.30;;
11537;SDS011;50159;49.426;11.182;2023-03-12T16:25:49;7.20;;;6.50;;
11537;SDS011;50159;49.426;11.182;2023-03-12T16:28:20;7.63;;;6.80;;
11537;SDS011;50159;49.426;11.182;2023-03-12T16:30:49;6.27;;;5.73;;
11537;SDS011;50159;49.426;11.182;2023-03-12T16:33:18;5.87;;;5.37;;
11537;SDS011;50159;49.426;11.182;2023-03-12T16:35:48;7.27;;;5.90;;
11537;SDS011;50159;49.426;11.182;2023-03-12T16:38:15;5.57;;;5.07;;
11537;SDS011;50159;49.426;11.182;2023-03-12T16:40:43;11.33;;;8.53;;
11537;SDS011;50159;49.426;11.182;2023-03-12T16:43:18;7.77;;;7.03;;
11537;SDS011;50159;49.426;11.182;2023-03-12T16:45:48;8.10;;;6.90;;
11537;SDS011;50159;49.426;11.182;2023-03-12T16:48:19;7.83;;;7.00;;
11537;SDS011;50159;49.426;11.182;2023-03-12T16:50:50;6.80;;;6.10;;
11537;SDS011;50159;49.426;11.182;2023-03-12T16:53:23;6.73;;;6.13;;
11537;SDS011;50159;49.426;11.182;2023-03-12T16:55:54;6.33;;;5.73;;
11537;SDS011;50159;49.426;11.182;2023-03-12T16:58:27;6.73;;;6.03;;
11537;SDS011;50159;49.426;11.182;2023-03-12T17:00:55;6.57;;;5.90;;
11537;SDS011;50159;49.426;11.182;2023-03-12T17:03:36;6.27;;;5.07;;